GQPA/ATR METAR and TAF weather

Enter ICAO airport designator
Station Type Date Time Source
GQPA METAR 2022/09/30 09:00 UTC NOAA

GQPA 300900Z 04008KT 7000 NSC 27/06 Q1014


Station Type Date Time Source
GQPA Decoded METAR 2022/09/30 09:00 UTC NOAA

Atar, Mauritania (GQPA) 20-31N 013-04W 224M
Sep 30, 2022 - 05:00 AM EDT / 2022.09.30 0900 UTC
Wind: from the NE (040 degrees) at 9 MPH (8 KT):0
Visibility: 4 mile(s):0
Temperature: 80 F (27 C)
Dew Point: 42 F (6 C)
Relative Humidity: 26%
Pressure (altimeter): 29.94 in. Hg (1014 hPa)
ob: GQPA 300900Z 04008KT 7000 NSC 27/06 Q1014
cycle: 9

Station Type Date Time Source
GQPA TAF UTC NOAA

Error!

Example: see airport list